createdAt,value
2023-02-11T00:01:33.508Z,8.50
2023-02-11T00:04:03.464Z,7.78
2023-02-11T00:06:35.300Z,7.24
2023-02-11T00:09:04.322Z,6.83
2023-02-11T00:11:32.100Z,6.49
2023-02-11T00:14:04.233Z,6.27
2023-02-11T00:16:32.945Z,6.16
2023-02-11T00:19:02.443Z,6.10
2023-02-11T00:21:30.880Z,6.48
2023-02-11T00:24:02.266Z,8.35
2023-02-11T00:26:35.421Z,9.68
2023-02-11T00:29:07.251Z,9.16
2023-02-11T00:31:35.483Z,8.34
2023-02-11T00:34:03.390Z,7.89
2023-02-11T00:36:31.284Z,7.47
2023-02-11T00:39:00.191Z,7.09
2023-02-11T00:41:28.055Z,6.82
2023-02-11T00:43:55.923Z,6.64
2023-02-11T00:46:24.628Z,6.53
2023-02-11T00:48:55.212Z,6.46
2023-02-11T00:51:26.865Z,6.42
2023-02-11T00:53:55.762Z,6.36
2023-02-11T00:56:25.873Z,6.35
2023-02-11T00:58:54.074Z,6.34
2023-02-11T01:01:22.199Z,6.34
2023-02-11T01:03:50.175Z,6.33
2023-02-11T01:06:19.734Z,6.35
2023-02-11T01:08:47.461Z,6.37
2023-02-11T01:11:19.454Z,6.39
2023-02-11T01:13:49.572Z,6.42
2023-02-11T01:16:20.607Z,6.48
2023-02-11T01:18:50.841Z,6.54
2023-02-11T01:21:19.519Z,6.57
2023-02-11T01:23:47.388Z,6.59
2023-02-11T01:26:15.265Z,6.63
2023-02-11T01:28:43.037Z,6.67
2023-02-11T01:31:10.918Z,6.71
2023-02-11T01:33:38.938Z,6.78
2023-02-11T01:36:08.148Z,6.89
2023-02-11T01:38:36.274Z,6.99
2023-02-11T01:41:11.329Z,7.09
2023-02-11T01:43:46.626Z,7.15
2023-02-11T01:46:38.578Z,7.18
2023-02-11T01:49:16.885Z,7.21
2023-02-11T01:51:51.513Z,7.25
2023-02-11T01:54:45.044Z,7.30
2023-02-11T01:57:25.141Z,7.41
2023-02-11T02:00:16.520Z,7.51
2023-02-11T02:03:12.002Z,7.58
2023-02-11T02:05:58.211Z,7.61
2023-02-11T02:08:41.276Z,7.61
2023-02-11T02:11:10.248Z,7.59
2023-02-11T02:13:39.274Z,7.58
2023-02-11T02:16:13.385Z,7.61
2023-02-11T02:19:31.829Z,7.62
2023-02-11T02:22:47.899Z,7.65
2023-02-11T02:25:30.660Z,7.73
2023-02-11T02:28:33.886Z,7.92
2023-02-11T02:31:28.369Z,8.16
2023-02-11T02:34:06.704Z,8.34
2023-02-11T02:36:46.224Z,8.50
2023-02-11T02:39:27.723Z,8.67
2023-02-11T02:41:57.093Z,8.80
2023-02-11T02:44:29.877Z,8.88
2023-02-11T02:47:00.107Z,8.98
2023-02-11T02:49:28.221Z,9.06
2023-02-11T02:52:35.978Z,9.11
2023-02-11T02:55:50.601Z,9.11
2023-02-11T02:58:55.741Z,9.12
2023-02-11T03:02:02.133Z,9.08
2023-02-11T03:04:57.363Z,9.05
2023-02-11T03:07:59.213Z,9.05
2023-02-11T03:10:36.584Z,9.02
2023-02-11T03:13:07.827Z,8.94
2023-02-11T03:15:43.293Z,8.86
2023-02-11T03:18:18.782Z,8.80
2023-02-11T03:20:52.067Z,8.82
2023-02-11T03:23:35.394Z,8.85
2023-02-11T03:26:23.377Z,8.89
2023-02-11T03:29:06.977Z,8.92
2023-02-11T03:31:47.804Z,8.91
2023-02-11T03:34:25.749Z,8.88
2023-02-11T03:37:19.241Z,8.79
2023-02-11T03:39:55.962Z,8.65
2023-02-11T03:42:30.169Z,8.54
2023-02-11T03:45:10.814Z,8.42
2023-02-11T03:47:43.513Z,8.27
2023-02-11T03:50:15.691Z,8.15
2023-02-11T03:52:49.817Z,8.06
2023-02-11T03:55:23.495Z,7.97
2023-02-11T03:57:52.373Z,7.92
2023-02-11T04:00:20.123Z,7.93
2023-02-11T04:02:47.816Z,7.91
2023-02-11T04:05:16.837Z,7.90
2023-02-11T04:07:44.788Z,7.88
2023-02-11T04:10:13.427Z,7.82
2023-02-11T04:12:41.232Z,7.75
2023-02-11T04:15:09.562Z,7.68
2023-02-11T04:17:39.393Z,7.62
2023-02-11T04:20:08.389Z,7.64
2023-02-11T04:22:38.118Z,7.66
2023-02-11T04:25:08.437Z,7.72
2023-02-11T04:27:36.814Z,7.79
2023-02-11T04:30:07.310Z,7.86
2023-02-11T04:32:35.506Z,7.89
2023-02-11T04:35:05.137Z,7.96
2023-02-11T04:37:32.868Z,8.09
2023-02-11T04:40:01.388Z,8.22
2023-02-11T04:42:29.653Z,8.30
2023-02-11T04:44:57.714Z,8.35
2023-02-11T04:47:25.595Z,8.39
2023-02-11T04:49:53.924Z,8.42
2023-02-11T04:52:21.664Z,8.42
2023-02-11T04:54:49.423Z,8.38
2023-02-11T04:57:17.478Z,8.33
2023-02-11T04:59:45.505Z,8.26
2023-02-11T05:02:13.415Z,8.19
2023-02-11T05:04:42.267Z,8.12
2023-02-11T05:07:10.223Z,8.06
2023-02-11T05:09:38.474Z,8.00
2023-02-11T05:12:06.720Z,7.96
2023-02-11T05:14:34.792Z,7.93
2023-02-11T05:17:02.687Z,7.93
2023-02-11T05:19:32.022Z,7.96
2023-02-11T05:22:02.985Z,8.01
2023-02-11T05:24:35.118Z,8.10
2023-02-11T05:27:03.284Z,8.18
2023-02-11T05:29:30.975Z,8.24
2023-02-11T05:32:00.306Z,8.25
2023-02-11T05:34:28.042Z,8.27
2023-02-11T05:36:57.160Z,8.31
2023-02-11T05:39:24.889Z,8.33
2023-02-11T05:41:52.714Z,8.31
2023-02-11T05:44:20.742Z,8.30
2023-02-11T05:46:49.737Z,8.28
2023-02-11T05:49:20.650Z,8.27
2023-02-11T05:51:49.103Z,8.29
2023-02-11T05:54:17.604Z,8.27
2023-02-11T05:56:46.709Z,8.23
2023-02-11T05:59:15.033Z,8.20
2023-02-11T06:01:43.228Z,8.20
2023-02-11T06:04:11.314Z,8.19
2023-02-11T06:06:39.115Z,8.17
2023-02-11T06:09:07.036Z,8.13
2023-02-11T06:11:34.768Z,8.04
2023-02-11T06:14:02.450Z,7.94
2023-02-11T06:16:31.675Z,7.83
2023-02-11T06:18:59.386Z,7.72
2023-02-11T06:21:42.458Z,7.63
2023-02-11T06:24:12.058Z,7.52
2023-02-11T06:26:40.994Z,7.38
2023-02-11T06:29:09.016Z,7.24
2023-02-11T06:31:39.773Z,7.10
2023-02-11T06:34:10.421Z,6.96
2023-02-11T06:36:41.877Z,6.81
2023-02-11T06:39:10.383Z,6.64
2023-02-11T06:41:38.110Z,6.50
2023-02-11T06:44:07.021Z,6.47
2023-02-11T06:46:35.212Z,6.49
2023-02-11T06:49:03.507Z,6.47
2023-02-11T06:51:31.487Z,6.42
2023-02-11T06:53:59.188Z,6.32
2023-02-11T06:56:27.625Z,6.22
2023-02-11T06:58:57.209Z,6.16
2023-02-11T07:01:28.634Z,6.08
2023-02-11T07:03:56.908Z,5.97
2023-02-11T07:06:28.073Z,5.87
2023-02-11T07:08:56.587Z,5.76
2023-02-11T07:11:29.081Z,5.66
2023-02-11T07:14:04.156Z,5.51
2023-02-11T07:16:36.477Z,5.33
2023-02-11T07:19:04.173Z,5.22
2023-02-11T07:21:34.920Z,5.16
2023-02-11T07:24:11.294Z,5.07
2023-02-11T07:26:39.552Z,4.99
2023-02-11T07:29:08.397Z,5.32
2023-02-11T07:31:37.576Z,7.15
2023-02-11T07:34:06.120Z,8.95
2023-02-11T07:36:34.910Z,10.11
2023-02-11T07:39:03.787Z,10.05
2023-02-11T07:41:31.500Z,9.09
2023-02-11T07:43:59.628Z,8.28
2023-02-11T07:46:28.104Z,7.71
2023-02-11T07:48:56.029Z,7.29
2023-02-11T07:51:31.900Z,6.91
2023-02-11T07:54:01.543Z,6.59
2023-02-11T07:56:30.654Z,6.31
2023-02-11T07:59:03.518Z,6.04
2023-02-11T08:01:31.525Z,5.81
2023-02-11T08:04:01.931Z,5.61
2023-02-11T08:06:34.260Z,5.45
2023-02-11T08:09:09.491Z,5.34
2023-02-11T08:11:37.469Z,5.25
2023-02-11T08:14:05.686Z,5.16
2023-02-11T08:16:37.108Z,5.08
2023-02-11T08:19:11.873Z,5.01
2023-02-11T08:21:41.358Z,5.31
2023-02-11T08:24:10.645Z,7.10
2023-02-11T08:26:38.821Z,9.01
2023-02-11T08:29:12.148Z,9.97
2023-02-11T08:31:44.342Z,9.25
2023-02-11T08:34:14.803Z,8.33
2023-02-11T08:36:43.009Z,7.66
2023-02-11T08:39:21.662Z,7.22
2023-02-11T08:41:53.743Z,6.93
2023-02-11T08:44:23.275Z,6.75
2023-02-11T08:46:52.425Z,6.62
2023-02-11T08:49:20.672Z,6.53
2023-02-11T08:51:49.594Z,6.46
2023-02-11T08:54:19.695Z,6.44
2023-02-11T08:56:51.854Z,6.43
2023-02-11T08:59:20.169Z,6.39
2023-02-11T09:01:48.586Z,6.34
2023-02-11T09:04:17.945Z,6.29
2023-02-11T09:06:48.476Z,6.25
2023-02-11T09:09:16.750Z,6.21
2023-02-11T09:11:46.049Z,6.21
2023-02-11T09:14:23.117Z,6.20
2023-02-11T09:16:53.520Z,6.17
2023-02-11T09:19:23.039Z,6.15
2023-02-11T09:21:50.752Z,6.17
2023-02-11T09:24:20.536Z,6.21
2023-02-11T09:26:49.646Z,6.29
2023-02-11T09:29:17.697Z,6.41
2023-02-11T09:31:45.811Z,6.54
2023-02-11T09:34:14.329Z,6.66
2023-02-11T09:36:42.549Z,6.77
2023-02-11T09:39:18.442Z,6.86
2023-02-11T09:42:18.694Z,6.93
2023-02-11T09:44:48.041Z,7.01
2023-02-11T09:47:30.400Z,7.07
2023-02-11T09:50:13.786Z,7.14
2023-02-11T09:52:56.143Z,7.20
2023-02-11T09:55:39.893Z,7.24
2023-02-11T09:58:26.773Z,7.29
2023-02-11T10:01:27.151Z,7.32
2023-02-11T10:04:45.099Z,7.35
2023-02-11T10:07:37.242Z,7.37
2023-02-11T10:10:42.215Z,7.40
2023-02-11T10:13:32.753Z,7.42
2023-02-11T10:16:16.111Z,7.41
2023-02-11T10:19:08.977Z,7.33
2023-02-11T10:21:54.102Z,7.21
2023-02-11T10:24:24.848Z,7.07
2023-02-11T10:26:53.101Z,6.95
2023-02-11T10:29:46.531Z,6.87
2023-02-11T10:32:41.904Z,6.77
2023-02-11T10:35:21.752Z,6.66
2023-02-11T10:37:50.828Z,6.59
2023-02-11T10:40:27.320Z,6.53
2023-02-11T10:43:04.294Z,6.46
2023-02-11T10:45:40.676Z,6.41
2023-02-11T10:48:38.049Z,6.42
2023-02-11T10:51:26.942Z,6.42
2023-02-11T10:54:08.354Z,6.46
2023-02-11T10:56:46.522Z,6.51
2023-02-11T10:59:18.124Z,6.58
2023-02-11T11:01:52.947Z,6.61
2023-02-11T11:04:31.352Z,6.70
2023-02-11T11:07:30.499Z,6.78
2023-02-11T11:10:31.913Z,6.87
2023-02-11T11:12:59.772Z,6.92
2023-02-11T11:15:31.422Z,6.92
2023-02-11T11:18:22.642Z,6.91
2023-02-11T11:21:13.662Z,6.86
2023-02-11T11:23:54.400Z,6.78
2023-02-11T11:26:30.321Z,6.74
2023-02-11T11:29:12.459Z,6.77
2023-02-11T11:32:04.994Z,6.83
2023-02-11T11:34:41.959Z,6.91
2023-02-11T11:37:36.333Z,6.94
2023-02-11T11:40:13.963Z,6.89
2023-02-11T11:42:45.147Z,6.80
2023-02-11T11:45:25.010Z,6.72
2023-02-11T11:48:28.289Z,6.64
2023-02-11T11:51:02.359Z,6.57
2023-02-11T11:54:20.729Z,6.53
2023-02-11T11:57:20.758Z,6.51
2023-02-11T11:59:48.809Z,6.55
2023-02-11T12:02:51.135Z,6.61
2023-02-11T12:05:31.839Z,6.67
2023-02-11T12:08:44.345Z,6.73
2023-02-11T12:12:18.615Z,6.77
2023-02-11T12:15:07.708Z,6.81
2023-02-11T12:18:06.238Z,6.83
2023-02-11T12:21:10.734Z,6.84
2023-02-11T12:23:52.138Z,6.81
2023-02-11T12:26:35.182Z,6.78
2023-02-11T12:29:27.817Z,6.75
2023-02-11T12:32:30.004Z,6.70
2023-02-11T12:35:21.724Z,6.67
2023-02-11T12:38:18.869Z,6.67
2023-02-11T12:41:53.342Z,6.66
2023-02-11T12:44:46.231Z,6.64
2023-02-11T12:47:44.469Z,6.62
2023-02-11T12:50:53.898Z,6.60
2023-02-11T12:54:07.038Z,6.57
2023-02-11T12:57:15.144Z,6.53
2023-02-11T13:00:22.282Z,6.50
2023-02-11T13:03:02.362Z,6.49
2023-02-11T13:05:44.634Z,6.48
2023-02-11T13:08:23.176Z,6.48
2023-02-11T13:10:59.029Z,6.46
2023-02-11T13:13:47.424Z,6.46
2023-02-11T13:16:50.340Z,6.46
2023-02-11T13:19:52.561Z,6.47
2023-02-11T13:22:33.878Z,6.44
2023-02-11T13:25:39.107Z,6.42
2023-02-11T13:28:29.559Z,6.40
2023-02-11T13:31:03.696Z,6.38
2023-02-11T13:33:43.253Z,6.36
2023-02-11T13:36:16.595Z,6.34
2023-02-11T13:38:56.254Z,6.30
2023-02-11T13:41:42.354Z,6.30
2023-02-11T13:44:22.977Z,6.26
2023-02-11T13:47:05.432Z,6.20
2023-02-11T13:49:40.656Z,6.16
2023-02-11T13:52:39.523Z,6.13
2023-02-11T13:55:27.737Z,6.12
2023-02-11T13:58:13.988Z,6.10
2023-02-11T14:00:51.805Z,6.09
2023-02-11T14:03:40.342Z,6.07
2023-02-11T14:06:28.117Z,6.06
2023-02-11T14:09:14.386Z,6.04
2023-02-11T14:11:50.975Z,6.00
2023-02-11T14:14:31.023Z,5.98
2023-02-11T14:17:10.886Z,5.91
2023-02-11T14:19:45.998Z,5.85
2023-02-11T14:22:49.554Z,5.80
2023-02-11T14:25:29.160Z,5.85
2023-02-11T14:28:26.730Z,7.33
2023-02-11T14:31:12.781Z,9.56
2023-02-11T14:34:08.035Z,10.80
2023-02-11T14:36:44.837Z,10.23
2023-02-11T14:39:45.362Z,9.21
2023-02-11T14:42:21.022Z,8.34
2023-02-11T14:44:52.546Z,7.80
2023-02-11T14:47:31.544Z,7.42
2023-02-11T14:49:59.357Z,7.09
2023-02-11T14:52:34.822Z,6.85
2023-02-11T14:55:09.217Z,6.63
2023-02-11T14:57:38.367Z,6.47
2023-02-11T15:00:23.251Z,6.29
2023-02-11T15:03:02.778Z,6.10
2023-02-11T15:05:32.268Z,5.92
2023-02-11T15:08:08.470Z,5.72
2023-02-11T15:10:45.510Z,5.57
2023-02-11T15:13:21.883Z,5.45
2023-02-11T15:16:07.686Z,5.36
2023-02-11T15:18:45.520Z,5.30
2023-02-11T15:21:27.538Z,5.23
2023-02-11T15:24:07.334Z,5.16
2023-02-11T15:26:35.064Z,5.09
2023-02-11T15:29:05.050Z,5.03
2023-02-11T15:31:35.283Z,5.25
2023-02-11T15:34:09.004Z,6.99
2023-02-11T15:36:38.694Z,9.10
2023-02-11T15:39:33.179Z,10.15
2023-02-11T15:42:27.507Z,9.23
2023-02-11T15:45:14.607Z,8.19
2023-02-11T15:47:56.551Z,7.56
2023-02-11T15:50:37.952Z,7.13
2023-02-11T15:53:31.950Z,6.77
2023-02-11T15:56:18.182Z,6.41
2023-02-11T15:58:49.944Z,6.10
2023-02-11T16:01:18.230Z,5.83
2023-02-11T16:03:51.060Z,5.58
2023-02-11T16:06:40.823Z,5.36
2023-02-11T16:09:08.792Z,5.14
2023-02-11T16:11:58.888Z,4.98
2023-02-11T16:14:28.495Z,4.76
2023-02-11T16:17:09.793Z,4.58
2023-02-11T16:19:47.600Z,4.74
2023-02-11T16:22:27.622Z,6.53
2023-02-11T16:24:59.762Z,8.54
2023-02-11T16:27:44.735Z,9.45
2023-02-11T16:30:43.209Z,8.47
2023-02-11T16:33:13.144Z,7.32
2023-02-11T16:35:41.089Z,6.67
2023-02-11T16:38:10.164Z,6.19
2023-02-11T16:40:43.561Z,5.80
2023-02-11T16:43:12.451Z,5.45
2023-02-11T16:45:42.897Z,5.14
2023-02-11T16:48:18.261Z,4.88
2023-02-11T16:50:53.412Z,4.64
2023-02-11T16:53:27.432Z,4.42
2023-02-11T16:55:56.240Z,4.22
2023-02-11T16:58:29.597Z,4.03
2023-02-11T17:01:03.712Z,3.83
2023-02-11T17:03:37.957Z,3.66
2023-02-11T17:06:13.579Z,3.86
2023-02-11T17:08:41.627Z,5.59
2023-02-11T17:11:09.364Z,7.27
2023-02-11T17:13:37.403Z,8.32
2023-02-11T17:16:07.313Z,7.61
2023-02-11T17:18:36.432Z,6.63
2023-02-11T17:21:07.551Z,5.87
2023-02-11T17:23:35.380Z,5.33
2023-02-11T17:26:03.997Z,4.83
2023-02-11T17:28:37.093Z,4.40
2023-02-11T17:31:09.975Z,4.03
2023-02-11T17:33:38.133Z,3.77
2023-02-11T17:36:11.490Z,3.56
2023-02-11T17:38:39.440Z,3.35
2023-02-11T17:41:07.572Z,3.47
2023-02-11T17:43:35.304Z,5.04
2023-02-11T17:46:07.846Z,6.75
2023-02-11T17:48:41.078Z,7.92
2023-02-11T17:51:36.194Z,8.00
2023-02-11T17:54:08.715Z,6.69
2023-02-11T17:56:37.485Z,5.69
2023-02-11T17:59:14.166Z,5.01
2023-02-11T18:01:44.894Z,4.55
2023-02-11T18:04:18.490Z,4.20
2023-02-11T18:06:47.033Z,3.87
2023-02-11T18:09:18.567Z,3.49
2023-02-11T18:11:47.400Z,3.11
2023-02-11T18:14:15.524Z,3.21
2023-02-11T18:16:46.491Z,4.84
2023-02-11T18:19:16.496Z,6.57
2023-02-11T18:21:44.772Z,7.74
2023-02-11T18:24:13.153Z,8.04
2023-02-11T18:26:44.926Z,6.93
2023-02-11T18:29:12.769Z,5.81
2023-02-11T18:31:40.878Z,5.03
2023-02-11T18:34:10.747Z,4.51
2023-02-11T18:36:39.372Z,4.12
2023-02-11T18:39:11.034Z,3.82
2023-02-11T18:41:41.443Z,3.51
2023-02-11T18:44:14.177Z,3.24
2023-02-11T18:46:43.546Z,2.99
2023-02-11T18:49:13.218Z,3.10
2023-02-11T18:51:40.927Z,4.80
2023-02-11T18:54:08.928Z,6.58
2023-02-11T18:56:37.121Z,7.66
2023-02-11T18:59:08.657Z,8.11
2023-02-11T19:01:40.771Z,7.09
2023-02-11T19:04:10.435Z,5.94
2023-02-11T19:06:40.009Z,5.11
2023-02-11T19:09:11.222Z,4.54
2023-02-11T19:11:53.939Z,4.10
2023-02-11T19:14:28.764Z,3.70
2023-02-11T19:17:02.263Z,3.37
2023-02-11T19:19:36.852Z,3.08
2023-02-11T19:22:10.392Z,2.85
2023-02-11T19:24:42.175Z,3.99
2023-02-11T19:27:13.752Z,5.59
2023-02-11T19:29:45.008Z,6.99
2023-02-11T19:32:12.752Z,7.51
2023-02-11T19:34:43.119Z,6.52
2023-02-11T19:37:15.305Z,5.35
2023-02-11T19:39:44.272Z,4.48
2023-02-11T19:42:13.846Z,3.83
2023-02-11T19:44:42.321Z,3.37
2023-02-11T19:47:10.804Z,3.01
2023-02-11T19:49:39.549Z,2.75
2023-02-11T19:52:07.308Z,2.89
2023-02-11T19:54:35.463Z,4.58
2023-02-11T19:57:03.642Z,6.39
2023-02-11T19:59:31.725Z,7.64
2023-02-11T20:02:01.592Z,7.60
2023-02-11T20:04:34.800Z,6.41
2023-02-11T20:07:02.586Z,5.40
2023-02-11T20:09:31.757Z,4.72
2023-02-11T20:12:02.163Z,4.12
2023-02-11T20:14:29.914Z,3.57
2023-02-11T20:16:58.061Z,3.10
2023-02-11T20:19:25.849Z,2.70
2023-02-11T20:21:56.013Z,2.36
2023-02-11T20:24:26.506Z,2.51
2023-02-11T20:26:56.252Z,4.40
2023-02-11T20:29:25.679Z,6.39
2023-02-11T20:31:54.867Z,7.38
2023-02-11T20:34:25.446Z,6.44
2023-02-11T20:36:54.169Z,5.28
2023-02-11T20:39:25.791Z,4.46
2023-02-11T20:41:58.491Z,3.78
2023-02-11T20:44:28.358Z,3.17
2023-02-11T20:46:56.055Z,2.70
2023-02-11T20:49:25.022Z,2.39
2023-02-11T20:51:54.366Z,2.12
2023-02-11T20:54:26.336Z,1.87
2023-02-11T20:56:57.082Z,1.99
2023-02-11T20:59:25.453Z,3.67
2023-02-11T21:01:59.844Z,5.53
2023-02-11T21:04:30.867Z,6.80
2023-02-11T21:07:02.228Z,7.23
2023-02-11T21:09:33.391Z,6.26
2023-02-11T21:12:02.906Z,5.10
2023-02-11T21:14:32.106Z,4.25
2023-02-11T21:16:59.852Z,3.57
2023-02-11T21:19:27.734Z,3.02
2023-02-11T21:21:57.668Z,2.52
2023-02-11T21:24:25.668Z,2.13
2023-02-11T21:26:56.456Z,1.82
2023-02-11T21:29:24.188Z,1.94
2023-02-11T21:31:52.316Z,3.76
2023-02-11T21:34:22.019Z,5.67
2023-02-11T21:36:53.293Z,6.96
2023-02-11T21:39:21.727Z,7.04
2023-02-11T21:41:49.670Z,5.86
2023-02-11T21:44:18.891Z,4.79
2023-02-11T21:46:47.130Z,4.03
2023-02-11T21:49:14.835Z,3.38
2023-02-11T21:51:43.683Z,2.83
2023-02-11T21:54:18.862Z,2.32
2023-02-11T21:56:50.020Z,1.90
2023-02-11T21:59:20.257Z,1.93
2023-02-11T22:01:48.768Z,3.45
2023-02-11T22:04:17.812Z,5.21
2023-02-11T22:06:46.100Z,6.46
2023-02-11T22:09:15.034Z,6.12
2023-02-11T22:11:43.862Z,4.99
2023-02-11T22:14:12.252Z,4.15
2023-02-11T22:16:40.319Z,3.59
2023-02-11T22:19:09.415Z,3.14
2023-02-11T22:21:37.651Z,2.75
2023-02-11T22:24:05.969Z,2.39
2023-02-11T22:26:33.951Z,2.09
2023-02-11T22:29:02.366Z,1.80
2023-02-11T22:31:36.876Z,1.53
2023-02-11T22:34:06.179Z,1.68
2023-02-11T22:36:38.491Z,3.44
2023-02-11T22:39:15.234Z,5.30
2023-02-11T22:41:46.953Z,6.55
2023-02-11T22:44:17.378Z,6.97
2023-02-11T22:46:45.656Z,5.82
2023-02-11T22:49:19.609Z,4.59
2023-02-11T22:51:48.773Z,3.67
2023-02-11T22:54:19.602Z,3.02
2023-02-11T22:56:51.639Z,2.48
2023-02-11T22:59:19.944Z,2.07
2023-02-11T23:01:48.322Z,1.77
2023-02-11T23:04:19.688Z,1.51
2023-02-11T23:06:50.621Z,1.51
2023-02-11T23:09:18.808Z,3.23
2023-02-11T23:11:49.429Z,5.00
2023-02-11T23:14:17.407Z,6.02
2023-02-11T23:16:46.421Z,6.88
2023-02-11T23:19:14.313Z,6.35
2023-02-11T23:21:42.175Z,5.10
2023-02-11T23:24:15.255Z,4.15
2023-02-11T23:26:47.183Z,3.40
2023-02-11T23:29:17.422Z,2.80
2023-02-11T23:31:47.013Z,2.36
2023-02-11T23:34:17.353Z,1.96
2023-02-11T23:36:45.218Z,1.58
2023-02-11T23:39:15.557Z,1.54
2023-02-11T23:41:44.997Z,3.23
2023-02-11T23:44:13.570Z,5.26
2023-02-11T23:46:42.069Z,6.21
2023-02-11T23:49:10.984Z,5.25
2023-02-11T23:51:41.522Z,4.18
2023-02-11T23:54:14.369Z,3.38
2023-02-11T23:56:42.848Z,2.75
2023-02-11T23:59:11.752Z,2.21
